Time;durP1;ratioP1;P1;durP2;ratioP2;P2;SDS_P1;SDS_P2;PMS_P1;PMS_P2;Temp;Humidity;BMP_temperature;BMP_pressure;BME280_temperature;BME280_humidity;BME280_pressure;Samples;Min_cycle;Max_cycle;Signal;HPM_P1;HPM_P2
2023/12/04 00:01:47;;;;;;;22.77;12.75;;;;;;;;;;5021574;27;93421;-60
2023/12/04 00:04:13;;;;;;;20.58;11.93;;;;;;;;;;5020399;28;94358;-60
2023/12/04 00:06:42;;;;;;;21.13;11.52;;;;;;;;;;5019931;28;93633;-60
2023/12/04 00:09:09;;;;;;;22.63;12.48;;;;;;;;;;5020594;27;92876;-60
2023/12/04 00:11:35;;;;;;;21.88;12.40;;;;;;;;;;5016332;28;94125;-60
2023/12/04 00:14:01;;;;;;;19.27;11.45;;;;;;;;;;5023380;27;93181;-61
2023/12/04 00:16:28;;;;;;;24.23;12.90;;;;;;;;;;5020447;28;92460;-62
2023/12/04 00:18:55;;;;;;;21.45;12.55;;;;;;;;;;5019433;28;93189;-60
2023/12/04 00:21:21;;;;;;;24.63;12.68;;;;;;;;;;5014241;28;95783;-61
2023/12/04 00:23:47;;;;;;;17.10;11.45;;;;;;;;;;5024725;28;92525;-61
2023/12/04 00:26:15;;;;;;;27.67;13.52;;;;;;;;;;5013393;27;93420;-62
2023/12/04 00:28:42;;;;;;;22.10;13.10;;;;;;;;;;5016685;28;92649;-61
2023/12/04 00:31:08;;;;;;;23.35;12.57;;;;;;;;;;5016746;28;93234;-60
2023/12/04 00:33:35;;;;;;;23.05;12.77;;;;;;;;;;5020732;27;93598;-60
2023/12/04 00:36:01;;;;;;;21.33;11.85;;;;;;;;;;5015663;28;92482;-60
2023/12/04 00:38:28;;;;;;;23.80;13.48;;;;;;;;;;5021929;28;94170;-60
2023/12/04 00:40:54;;;;;;;23.55;12.45;;;;;;;;;;5018195;28;93550;-60
2023/12/04 00:43:20;;;;;;;24.23;13.27;;;;;;;;;;5019476;28;92444;-61
2023/12/04 00:45:47;;;;;;;28.48;13.80;;;;;;;;;;5023880;28;94838;-60
2023/12/04 00:48:13;;;;;;;26.38;13.57;;;;;;;;;;5021910;27;92436;-60
2023/12/04 00:50:39;;;;;;;33.30;13.77;;;;;;;;;;5020374;28;93842;-60
2023/12/04 00:53:06;;;;;;;23.63;13.30;;;;;;;;;;5021971;27;93373;-60
2023/12/04 00:55:32;;;;;;;24.70;12.70;;;;;;;;;;5019481;28;92431;-60
2023/12/04 00:57:58;;;;;;;22.75;12.88;;;;;;;;;;5021159;27;93174;-60
2023/12/04 01:00:25;;;;;;;27.35;14.25;;;;;;;;;;5022319;28;93499;-60
2023/12/04 01:02:51;;;;;;;26.70;14.10;;;;;;;;;;5016734;27;91876;-61
2023/12/04 01:05:18;;;;;;;29.92;14.77;;;;;;;;;;5019623;28;92565;-60
2023/12/04 01:07:44;;;;;;;24.08;13.63;;;;;;;;;;5023497;28;93415;-60
2023/12/04 01:10:10;;;;;;;25.85;14.13;;;;;;;;;;5015466;27;94997;-60
2023/12/04 01:12:37;;;;;;;26.80;14.50;;;;;;;;;;5019745;27;93404;-60
2023/12/04 01:15:03;;;;;;;28.90;14.35;;;;;;;;;;5019602;28;92458;-60
2023/12/04 01:17:29;;;;;;;24.75;13.27;;;;;;;;;;5020099;28;93194;-60
2023/12/04 01:19:57;;;;;;;22.88;14.05;;;;;;;;;;5014890;28;93443;-60
2023/12/04 01:22:23;;;;;;;27.02;14.10;;;;;;;;;;5022108;28;92510;-60
2023/12/04 01:24:50;;;;;;;31.38;14.95;;;;;;;;;;5020978;27;93342;-60
2023/12/04 01:27:16;;;;;;;26.92;13.77;;;;;;;;;;5026980;28;93727;-60
2023/12/04 01:29:43;;;;;;;31.48;15.10;;;;;;;;;;5020668;28;92515;-60
2023/12/04 01:32:09;;;;;;;26.85;13.43;;;;;;;;;;5023073;27;93561;-60
2023/12/04 01:34:35;;;;;;;26.90;14.27;;;;;;;;;;5019439;28;95463;-62
2023/12/04 01:37:02;;;;;;;31.20;15.60;;;;;;;;;;5019314;28;96559;-60
2023/12/04 01:39:29;;;;;;;26.05;13.98;;;;;;;;;;5019695;28;93070;-60
2023/12/04 01:41:57;;;;;;;26.05;14.43;;;;;;;;;;5024814;28;92527;-61
2023/12/04 01:44:24;;;;;;;28.55;14.32;;;;;;;;;;5023342;27;93529;-61
2023/12/04 01:46:50;;;;;;;26.08;14.60;;;;;;;;;;5012434;28;93479;-60
2023/12/04 01:49:17;;;;;;;25.70;14.63;;;;;;;;;;5025887;28;92557;-60
2023/12/04 01:51:44;;;;;;;27.67;14.80;;;;;;;;;;5022379;28;92661;-61
2023/12/04 01:54:10;;;;;;;25.70;14.60;;;;;;;;;;5012914;28;95243;-60
2023/12/04 01:56:37;;;;;;;23.50;13.18;;;;;;;;;;5017531;27;94234;-61
2023/12/04 01:59:04;;;;;;;26.25;13.38;;;;;;;;;;5018658;27;95815;-60
2023/12/04 02:01:30;;;;;;;27.58;15.02;;;;;;;;;;5017569;28;92527;-60
2023/12/04 02:03:57;;;;;;;31.55;15.02;;;;;;;;;;5017124;28;93159;-60
2023/12/04 02:06:25;;;;;;;24.98;14.23;;;;;;;;;;5018467;28;93393;-60
2023/12/04 02:08:51;;;;;;;27.65;14.50;;;;;;;;;;5015654;28;92580;-60
2023/12/04 02:11:17;;;;;;;31.55;15.05;;;;;;;;;;5025588;27;95485;-60
2023/12/04 02:13:44;;;;;;;23.50;13.50;;;;;;;;;;5023728;28;92554;-64
2023/12/04 02:16:12;;;;;;;27.67;14.40;;;;;;;;;;5019603;28;94466;-63
2023/12/04 02:18:38;;;;;;;25.83;14.85;;;;;;;;;;5022056;27;93449;-61
2023/12/04 02:21:05;;;;;;;23.58;13.07;;;;;;;;;;5019044;27;92465;-60
2023/12/04 02:23:31;;;;;;;29.08;14.70;;;;;;;;;;5019892;28;94731;-61
2023/12/04 02:26:03;;;;;;;26.95;14.98;;;;;;;;;;5022891;28;93429;-61
2023/12/04 02:28:35;;;;;;;27.08;14.23;;;;;;;;;;5022243;27;92982;-60
2023/12/04 02:31:04;;;;;;;25.48;14.13;;;;;;;;;;5018143;27;93150;-60
2023/12/04 02:33:31;;;;;;;25.40;14.18;;;;;;;;;;5027921;27;93363;-60
2023/12/04 02:35:58;;;;;;;20.15;12.65;;;;;;;;;;5021692;27;93147;-60
2023/12/04 02:38:25;;;;;;;25.75;14.13;;;;;;;;;;5020369;28;93464;-60
2023/12/04 02:40:51;;;;;;;25.77;14.25;;;;;;;;;;5018613;28;91754;-60
2023/12/04 02:43:18;;;;;;;26.27;13.68;;;;;;;;;;5020638;28;93526;-60
2023/12/04 02:45:44;;;;;;;29.45;14.32;;;;;;;;;;5021747;28;93924;-61
2023/12/04 02:48:10;;;;;;;25.15;13.45;;;;;;;;;;5016392;27;94893;-60
2023/12/04 02:50:37;;;;;;;27.20;14.57;;;;;;;;;;5021364;28;95637;-60
2023/12/04 02:53:03;;;;;;;26.55;13.50;;;;;;;;;;5009009;28;96772;-61
2023/12/04 02:55:30;;;;;;;27.15;14.00;;;;;;;;;;5023681;28;92469;-60
2023/12/04 02:57:56;;;;;;;22.88;13.13;;;;;;;;;;5020109;28;93402;-61
2023/12/04 03:00:22;;;;;;;22.00;13.27;;;;;;;;;;5019259;28;92462;-60
2023/12/04 03:02:48;;;;;;;24.83;13.38;;;;;;;;;;5018828;27;93204;-61
2023/12/04 03:05:15;;;;;;;30.52;15.10;;;;;;;;;;5017686;28;92450;-60
2023/12/04 03:07:41;;;;;;;24.15;13.18;;;;;;;;;;5023582;27;92475;-61
2023/12/04 03:10:08;;;;;;;26.05;13.15;;;;;;;;;;5020268;27;93069;-60
2023/12/04 03:12:34;;;;;;;25.80;13.25;;;;;;;;;;5017755;28;97013;-60
2023/12/04 03:15:01;;;;;;;21.10;12.20;;;;;;;;;;5017684;28;92526;-60
2023/12/04 03:17:27;;;;;;;24.50;12.45;;;;;;;;;;5018491;28;92978;-60
2023/12/04 03:19:53;;;;;;;30.67;14.52;;;;;;;;;;5022122;28;92459;-61
2023/12/04 03:22:20;;;;;;;24.83;13.70;;;;;;;;;;5021952;28;93041;-60
2023/12/04 03:24:46;;;;;;;24.52;13.32;;;;;;;;;;5027572;27;93495;-60
2023/12/04 03:27:13;;;;;;;26.90;13.77;;;;;;;;;;5020738;28;92489;-61
2023/12/04 03:29:39;;;;;;;24.67;14.18;;;;;;;;;;5020193;27;93166;-60
2023/12/04 03:32:05;;;;;;;26.45;14.15;;;;;;;;;;5018813;28;94438;-60
2023/12/04 03:34:32;;;;;;;21.20;11.88;;;;;;;;;;5019201;28;92961;-61
2023/12/04 03:36:58;;;;;;;24.33;12.60;;;;;;;;;;5019849;28;95189;-61
2023/12/04 03:39:25;;;;;;;23.42;12.93;;;;;;;;;;5020573;27;92446;-60
2023/12/04 03:41:51;;;;;;;22.63;12.48;;;;;;;;;;5019121;28;93816;-60
2023/12/04 03:44:17;;;;;;;19.02;11.75;;;;;;;;;;5019568;27;93294;-61
2023/12/04 03:46:44;;;;;;;22.67;12.40;;;;;;;;;;5019748;27;92470;-60
2023/12/04 03:49:10;;;;;;;25.13;13.30;;;;;;;;;;5020522;28;93263;-60
2023/12/04 03:51:37;;;;;;;23.90;12.82;;;;;;;;;;5009526;28;95318;-61
2023/12/04 03:54:03;;;;;;;22.42;12.38;;;;;;;;;;5017718;28;91944;-60
2023/12/04 03:56:30;;;;;;;23.65;12.18;;;;;;;;;;5018902;28;92524;-60
2023/12/04 03:58:56;;;;;;;22.92;12.45;;;;;;;;;;5020821;27;93637;-60
2023/12/04 04:01:23;;;;;;;22.08;12.27;;;;;;;;;;5017190;28;95124;-60
2023/12/04 04:03:49;;;;;;;22.80;12.07;;;;;;;;;;5019391;27;93443;-60
2023/12/04 04:06:15;;;;;;;22.55;11.65;;;;;;;;;;5022840;27;92493;-61
2023/12/04 04:08:42;;;;;;;23.35;11.02;;;;;;;;;;5017120;28;94515;-60
2023/12/04 04:11:08;;;;;;;29.02;12.43;;;;;;;;;;5015561;28;93542;-61
2023/12/04 04:13:34;;;;;;;22.30;12.43;;;;;;;;;;5015839;27;92532;-60
2023/12/04 04:16:01;;;;;;;26.00;10.88;;;;;;;;;;5017178;28;94335;-61
2023/12/04 04:18:27;;;;;;;22.33;11.65;;;;;;;;;;5020006;27;92661;-60
2023/12/04 04:20:53;;;;;;;18.45;11.07;;;;;;;;;;5026306;28;92397;-60
2023/12/04 04:23:20;;;;;;;19.60;10.82;;;;;;;;;;5018102;28;92444;-61
2023/12/04 04:25:46;;;;;;;20.65;10.82;;;;;;;;;;5013656;28;94965;-60
2023/12/04 04:28:12;;;;;;;21.17;10.85;;;;;;;;;;5015370;28;95578;-61
2023/12/04 04:30:40;;;;;;;22.48;12.00;;;;;;;;;;5016506;28;93441;-60
2023/12/04 04:33:06;;;;;;;19.52;10.73;;;;;;;;;;5018618;28;92531;-60
2023/12/04 04:35:33;;;;;;;24.33;10.85;;;;;;;;;;5018731;27;94166;-60
2023/12/04 04:37:59;;;;;;;21.55;11.45;;;;;;;;;;5018132;28;93427;-60
2023/12/04 04:40:25;;;;;;;19.70;11.68;;;;;;;;;;5023330;28;92341;-60
2023/12/04 04:42:52;;;;;;;20.80;11.00;;;;;;;;;;5021227;27;93551;-61
2023/12/04 04:45:18;;;;;;;22.67;12.15;;;;;;;;;;5017613;28;92824;-61
2023/12/04 04:47:45;;;;;;;22.55;11.77;;;;;;;;;;5021474;27;93210;-61
2023/12/04 04:50:11;;;;;;;19.30;10.63;;;;;;;;;;5012237;28;95985;-60
2023/12/04 04:52:37;;;;;;;16.38;10.55;;;;;;;;;;5016410;28;93045;-60
2023/12/04 04:55:05;;;;;;;19.83;11.30;;;;;;;;;;5024997;28;93183;-60
2023/12/04 04:57:31;;;;;;;20.38;11.07;;;;;;;;;;5023107;28;94469;-59
2023/12/04 04:59:57;;;;;;;19.73;10.60;;;;;;;;;;5030374;28;92480;-60
2023/12/04 05:02:23;;;;;;;18.13;10.27;;;;;;;;;;5026281;28;93114;-60
2023/12/04 05:04:50;;;;;;;21.40;11.02;;;;;;;;;;5027502;27;93417;-60
2023/12/04 05:07:17;;;;;;;19.98;11.30;;;;;;;;;;5021981;28;93234;-60
2023/12/04 05:09:43;;;;;;;16.70;10.02;;;;;;;;;;5027257;27;93487;-63
2023/12/04 05:12:10;;;;;;;19.70;10.40;;;;;;;;;;5024028;28;92548;-63
2023/12/04 05:14:36;;;;;;;18.48;10.68;;;;;;;;;;5018054;27;94842;-63
2023/12/04 05:17:02;;;;;;;17.30;10.30;;;;;;;;;;5024745;28;93485;-63
2023/12/04 05:19:29;;;;;;;22.38;10.88;;;;;;;;;;5021861;27;92471;-63
2023/12/04 05:21:55;;;;;;;15.35;9.52;;;;;;;;;;5023282;28;93605;-63
2023/12/04 05:24:22;;;;;;;18.52;10.77;;;;;;;;;;5023394;27;95571;-63
2023/12/04 05:26:48;;;;;;;16.70;9.55;;;;;;;;;;5030229;27;92557;-63
2023/12/04 05:29:14;;;;;;;16.73;10.20;;;;;;;;;;5022302;28;93441;-63
2023/12/04 05:31:41;;;;;;;17.40;10.32;;;;;;;;;;5022473;27;91821;-62
2023/12/04 05:34:07;;;;;;;17.38;9.45;;;;;;;;;;5019854;27;92569;-63
2023/12/04 05:36:34;;;;;;;17.25;10.02;;;;;;;;;;5023720;28;95085;-64
2023/12/04 05:39:00;;;;;;;18.33;10.63;;;;;;;;;;5014357;28;94903;-63
2023/12/04 05:41:27;;;;;;;16.15;10.30;;;;;;;;;;5012334;28;96898;-63
2023/12/04 05:43:53;;;;;;;16.55;9.73;;;;;;;;;;5018453;28;95033;-63
2023/12/04 05:46:19;;;;;;;16.10;9.65;;;;;;;;;;5025852;28;92662;-63
2023/12/04 05:48:46;;;;;;;16.58;10.23;;;;;;;;;;5023149;28;93489;-63
2023/12/04 05:51:14;;;;;;;18.42;10.63;;;;;;;;;;5018964;28;92604;-63
2023/12/04 05:53:41;;;;;;;17.63;10.30;;;;;;;;;;5022069;27;92387;-63
2023/12/04 05:56:08;;;;;;;17.90;10.05;;;;;;;;;;5024473;28;92414;-63
2023/12/04 05:58:35;;;;;;;18.70;11.00;;;;;;;;;;5022510;27;92467;-63
2023/12/04 06:01:01;;;;;;;18.33;10.13;;;;;;;;;;5023160;27;93140;-63
2023/12/04 06:03:27;;;;;;;19.85;10.70;;;;;;;;;;5017798;28;97153;-63
2023/12/04 06:05:54;;;;;;;20.55;9.82;;;;;;;;;;5021933;27;92487;-63
2023/12/04 06:08:24;;;;;;;18.33;10.95;;;;;;;;;;5024425;27;93163;-63
2023/12/04 06:10:51;;;;;;;17.48;10.43;;;;;;;;;;5017384;28;92486;-63
2023/12/04 06:13:17;;;;;;;19.55;9.90;;;;;;;;;;5022022;27;94170;-63
2023/12/04 06:15:44;;;;;;;17.42;9.80;;;;;;;;;;5023802;28;94510;-63
2023/12/04 06:18:10;;;;;;;16.77;9.82;;;;;;;;;;5025570;28;92576;-60
2023/12/04 06:20:36;;;;;;;16.17;9.75;;;;;;;;;;5021509;28;93148;-60
2023/12/04 06:23:03;;;;;;;16.65;10.07;;;;;;;;;;5022285;28;93428;-61
2023/12/04 06:25:29;;;;;;;16.00;9.57;;;;;;;;;;5019629;27;92533;-61
2023/12/04 06:27:56;;;;;;;14.38;9.55;;;;;;;;;;5015387;28;94752;-61
2023/12/04 06:30:22;;;;;;;14.50;9.30;;;;;;;;;;5024131;27;93446;-61
2023/12/04 06:32:49;;;;;;;14.02;9.50;;;;;;;;;;5021250;28;93178;-60
2023/12/04 06:35:15;;;;;;;16.50;9.80;;;;;;;;;;5021653;28;94692;-61
2023/12/04 06:37:47;;;;;;;21.80;10.70;;;;;;;;;;5023422;27;92786;-61
2023/12/04 06:40:13;;;;;;;16.77;10.40;;;;;;;;;;5016005;28;94346;-60
2023/12/04 06:42:40;;;;;;;14.93;9.35;;;;;;;;;;5016793;28;93372;-60
2023/12/04 06:45:07;;;;;;;17.10;9.18;;;;;;;;;;5027756;28;91717;-61
2023/12/04 06:47:34;;;;;;;14.10;9.15;;;;;;;;;;5018459;28;92457;-60
2023/12/04 06:50:00;;;;;;;16.98;8.65;;;;;;;;;;5021257;28;94383;-60
2023/12/04 06:52:26;;;;;;;14.02;9.07;;;;;;;;;;5021867;28;94934;-60
2023/12/04 06:54:53;;;;;;;16.23;9.82;;;;;;;;;;5021942;27;93355;-61
2023/12/04 06:57:19;;;;;;;14.32;8.73;;;;;;;;;;5024464;28;92410;-60
2023/12/04 06:59:45;;;;;;;13.27;8.30;;;;;;;;;;5020053;28;93102;-60
2023/12/04 07:02:12;;;;;;;11.30;7.88;;;;;;;;;;5019315;28;95155;-61
2023/12/04 07:04:39;;;;;;;15.18;8.15;;;;;;;;;;5024523;28;92644;-60
2023/12/04 07:07:06;;;;;;;13.45;8.23;;;;;;;;;;5017650;28;93155;-60
2023/12/04 07:09:33;;;;;;;12.13;8.13;;;;;;;;;;5019445;28;93848;-61
2023/12/04 07:12:00;;;;;;;14.60;8.35;;;;;;;;;;5018447;28;92513;-60
2023/12/04 07:14:26;;;;;;;12.45;8.15;;;;;;;;;;5018761;28;94214;-61
2023/12/04 07:16:53;;;;;;;13.93;8.48;;;;;;;;;;5023253;27;95140;-60
2023/12/04 07:19:19;;;;;;;21.23;8.57;;;;;;;;;;5014672;28;94328;-60
2023/12/04 07:21:46;;;;;;;14.48;8.73;;;;;;;;;;5018836;28;93641;-60
2023/12/04 07:24:12;;;;;;;13.10;8.20;;;;;;;;;;5017925;28;92669;-60
2023/12/04 07:26:39;;;;;;;13.57;8.25;;;;;;;;;;5021763;28;93129;-60
2023/12/04 07:29:05;;;;;;;17.67;8.35;;;;;;;;;;5014239;28;94393;-61
2023/12/04 07:31:31;;;;;;;14.02;8.90;;;;;;;;;;5021443;28;92699;-60
2023/12/04 07:34:00;;;;;;;18.60;9.73;;;;;;;;;;5022822;28;93532;-60
2023/12/04 07:36:27;;;;;;;16.73;8.73;;;;;;;;;;5021060;28;92460;-60
2023/12/04 07:38:53;;;;;;;15.10;9.05;;;;;;;;;;5019868;27;94415;-60
2023/12/04 07:41:20;;;;;;;19.88;8.88;;;;;;;;;;5018386;27;95743;-60
2023/12/04 07:43:47;;;;;;;14.55;8.80;;;;;;;;;;5022737;28;92558;-60
2023/12/04 07:46:16;;;;;;;15.43;9.23;;;;;;;;;;5019564;28;92607;-60
2023/12/04 07:48:43;;;;;;;14.98;9.52;;;;;;;;;;5022415;28;94696;-60
2023/12/04 07:51:10;;;;;;;16.35;8.90;;;;;;;;;;5022670;28;94011;-60
2023/12/04 07:53:37;;;;;;;16.88;8.55;;;;;;;;;;5017255;28;93597;-60
2023/12/04 07:56:03;;;;;;;14.43;8.63;;;;;;;;;;5023824;28;94436;-60
2023/12/04 07:58:31;;;;;;;15.38;8.88;;;;;;;;;;5013872;28;93169;-60
2023/12/04 08:00:57;;;;;;;12.82;8.55;;;;;;;;;;5019350;27;93308;-60
2023/12/04 08:03:24;;;;;;;14.55;8.45;;;;;;;;;;5016879;28;92427;-61
2023/12/04 08:05:51;;;;;;;14.45;8.27;;;;;;;;;;5015024;28;95796;-60
2023/12/04 08:08:17;;;;;;;11.98;7.82;;;;;;;;;;5021151;28;93721;-60
2023/12/04 08:10:44;;;;;;;13.23;8.15;;;;;;;;;;5022424;28;92659;-59
2023/12/04 08:13:10;;;;;;;13.55;8.50;;;;;;;;;;5023288;27;93123;-60
2023/12/04 08:15:36;;;;;;;14.90;7.90;;;;;;;;;;5018315;27;93463;-60
2023/12/04 08:18:03;;;;;;;13.70;8.35;;;;;;;;;;5020454;28;92549;-60
2023/12/04 08:20:29;;;;;;;15.30;8.18;;;;;;;;;;5022275;28;94486;-61
2023/12/04 08:23:06;;;;;;;10.65;7.10;;;;;;;;;;5022232;28;93261;-60
2023/12/04 08:25:32;;;;;;;12.80;7.53;;;;;;;;;;5024329;27;93422;-61
2023/12/04 08:27:59;;;;;;;13.57;7.07;;;;;;;;;;5017563;28;92522;-60
2023/12/04 08:30:27;;;;;;;15.32;7.30;;;;;;;;;;5022236;28;95095;-60
2023/12/04 08:32:53;;;;;;;9.55;6.57;;;;;;;;;;5021005;28;94201;-60
2023/12/04 08:35:20;;;;;;;9.93;6.80;;;;;;;;;;5015836;28;93373;-61
2023/12/04 08:37:46;;;;;;;11.93;7.18;;;;;;;;;;5016902;28;92588;-60
2023/12/04 08:40:13;;;;;;;11.50;6.85;;;;;;;;;;5024804;28;94239;-63
2023/12/04 08:42:39;;;;;;;11.35;6.97;;;;;;;;;;5022911;28;92774;-64
2023/12/04 08:45:06;;;;;;;9.68;6.90;;;;;;;;;;5019326;27;93053;-64
2023/12/04 08:47:33;;;;;;;11.73;7.22;;;;;;;;;;5023477;28;93735;-63
2023/12/04 08:50:00;;;;;;;14.63;7.07;;;;;;;;;;5027492;27;92718;-62
2023/12/04 08:52:26;;;;;;;11.70;7.32;;;;;;;;;;5021428;28;92876;-63
2023/12/04 08:54:54;;;;;;;12.00;6.15;;;;;;;;;;5019252;28;96968;-63
2023/12/04 08:57:20;;;;;;;10.95;6.20;;;;;;;;;;5024135;28;92694;-64
2023/12/04 08:59:47;;;;;;;12.38;7.38;;;;;;;;;;5022630;28;92929;-63
2023/12/04 09:02:13;;;;;;;11.45;7.40;;;;;;;;;;5025615;28;93350;-63
2023/12/04 09:04:40;;;;;;;11.30;7.28;;;;;;;;;;5023695;28;93076;-63
2023/12/04 09:07:07;;;;;;;14.27;7.32;;;;;;;;;;5022575;28;93488;-63
2023/12/04 09:09:36;;;;;;;17.02;7.70;;;;;;;;;;5021571;28;92621;-63
2023/12/04 09:12:03;;;;;;;12.25;7.22;;;;;;;;;;5023298;28;93180;-63
2023/12/04 09:14:30;;;;;;;10.35;6.90;;;;;;;;;;5017439;28;93460;-64
2023/12/04 09:16:56;;;;;;;11.35;6.40;;;;;;;;;;5025373;28;92459;-63
2023/12/04 09:19:22;;;;;;;10.13;6.88;;;;;;;;;;5020529;28;95777;-63
2023/12/04 09:21:49;;;;;;;10.85;7.22;;;;;;;;;;5022858;28;93386;-63
2023/12/04 09:24:28;;;;;;;11.20;7.22;;;;;;;;;;5014321;28;92849;-63
2023/12/04 09:26:55;;;;;;;11.27;7.13;;;;;;;;;;5022451;27;93381;-64
2023/12/04 09:29:23;;;;;;;11.80;7.10;;;;;;;;;;5020051;28;92693;-63
2023/12/04 09:31:51;;;;;;;10.23;6.43;;;;;;;;;;5024749;28;93222;-64
2023/12/04 09:34:19;;;;;;;12.18;6.90;;;;;;;;;;5024666;28;93434;-64
2023/12/04 09:36:48;;;;;;;11.07;7.20;;;;;;;;;;5025273;27;92029;-63
2023/12/04 09:39:16;;;;;;;10.35;6.68;;;;;;;;;;5019980;27;92613;-64
2023/12/04 09:41:43;;;;;;;11.30;7.18;;;;;;;;;;5024429;27;93425;-62
2023/12/04 09:44:10;;;;;;;12.07;7.15;;;;;;;;;;5023511;28;94861;-64
2023/12/04 09:46:37;;;;;;;12.60;6.50;;;;;;;;;;5014113;28;94607;-63
2023/12/04 09:49:04;;;;;;;12.20;6.88;;;;;;;;;;5024305;27;92456;-64
2023/12/04 09:51:31;;;;;;;10.15;6.32;;;;;;;;;;5018984;28;93152;-64
2023/12/04 09:53:59;;;;;;;9.60;6.47;;;;;;;;;;5022051;28;93685;-63
2023/12/04 09:56:26;;;;;;;10.52;6.38;;;;;;;;;;5024830;27;92647;-64
2023/12/04 09:58:57;;;;;;;11.23;6.80;;;;;;;;;;5018336;28;93187;-65
2023/12/04 10:01:24;;;;;;;9.38;6.57;;;;;;;;;;5022421;28;93699;-64
2023/12/04 10:03:51;;;;;;;12.95;6.95;;;;;;;;;;5022091;28;92736;-64
2023/12/04 10:06:17;;;;;;;11.73;6.43;;;;;;;;;;5029670;28;93273;-66
2023/12/04 10:08:44;;;;;;;9.77;6.53;;;;;;;;;;5022858;27;94844;-65
2023/12/04 10:11:12;;;;;;;12.38;6.55;;;;;;;;;;5024711;27;95878;-65
2023/12/04 10:13:40;;;;;;;11.57;6.15;;;;;;;;;;5023027;28;93204;-66
2023/12/04 10:16:34;;;;;;;11.85;7.07;;;;;;;;;;5021435;28;94184;-65
2023/12/04 10:19:17;;;;;;;12.23;6.97;;;;;;;;;;5023193;28;92946;-65
2023/12/04 10:21:48;;;;;;;9.68;6.38;;;;;;;;;;5022496;28;92766;-64
2023/12/04 10:24:27;;;;;;;11.65;7.28;;;;;;;;;;5025295;28;92860;-64
2023/12/04 10:26:54;;;;;;;10.07;7.00;;;;;;;;;;5025818;28;93198;-62
2023/12/04 10:29:20;;;;;;;12.80;7.35;;;;;;;;;;5026138;27;93519;-64
2023/12/04 10:31:50;;;;;;;9.10;6.15;;;;;;;;;;5024079;28;93069;-64
2023/12/04 10:34:16;;;;;;;9.43;7.00;;;;;;;;;;5018951;27;95814;-64
2023/12/04 10:36:45;;;;;;;11.85;7.00;;;;;;;;;;5023867;28;92989;-64
2023/12/04 10:39:14;;;;;;;12.98;6.95;;;;;;;;;;5019579;28;93061;-64
2023/12/04 10:41:41;;;;;;;9.43;6.82;;;;;;;;;;5022865;27;93298;-64
2023/12/04 10:44:08;;;;;;;13.60;7.32;;;;;;;;;;5021353;27;92451;-64
2023/12/04 10:46:37;;;;;;;10.82;6.88;;;;;;;;;;5022680;28;93143;-64
2023/12/04 10:49:03;;;;;;;20.02;6.95;;;;;;;;;;5024308;27;93780;-64
2023/12/04 10:51:32;;;;;;;12.02;7.18;;;;;;;;;;5026495;28;91686;-64
2023/12/04 10:53:58;;;;;;;15.15;7.78;;;;;;;;;;5024060;28;94413;-64
2023/12/04 10:56:27;;;;;;;17.02;7.15;;;;;;;;;;5022075;28;92587;-64
2023/12/04 10:58:54;;;;;;;14.85;7.60;;;;;;;;;;5020356;28;95035;-64
2023/12/04 11:01:23;;;;;;;10.57;7.18;;;;;;;;;;5018012;28;92958;-64
2023/12/04 11:03:52;;;;;;;11.15;6.70;;;;;;;;;;5027855;28;92632;-64
2023/12/04 11:06:21;;;;;;;12.35;7.63;;;;;;;;;;5019215;28;94202;-64
2023/12/04 11:08:48;;;;;;;15.02;8.35;;;;;;;;;;5015357;28;93405;-64
2023/12/04 11:11:17;;;;;;;16.70;8.40;;;;;;;;;;5020332;28;92572;-64
2023/12/04 11:13:46;;;;;;;15.23;8.10;;;;;;;;;;5023256;27;94126;-64
2023/12/04 11:16:18;;;;;;;12.18;7.57;;;;;;;;;;5019989;28;92609;-64
2023/12/04 11:18:46;;;;;;;12.73;7.82;;;;;;;;;;5022155;28;92435;-64
2023/12/04 11:21:13;;;;;;;11.95;7.47;;;;;;;;;;5018709;28;93575;-64
2023/12/04 11:23:40;;;;;;;13.50;8.07;;;;;;;;;;5019437;28;94857;-64
2023/12/04 11:26:07;;;;;;;13.13;8.00;;;;;;;;;;5021057;28;96517;-64
2023/12/04 11:28:34;;;;;;;12.60;7.70;;;;;;;;;;5020304;28;93448;-64
2023/12/04 11:31:04;;;;;;;11.95;7.63;;;;;;;;;;5015725;27;92573;-64
2023/12/04 11:33:37;;;;;;;13.00;8.33;;;;;;;;;;5023500;27;93058;-63
2023/12/04 11:36:11;;;;;;;11.30;8.38;;;;;;;;;;5023842;28;93556;-64
2023/12/04 11:38:43;;;;;;;13.18;8.23;;;;;;;;;;5020209;28;93226;-64
2023/12/04 11:41:17;;;;;;;15.20;8.63;;;;;;;;;;5019351;28;93711;-62
2023/12/04 11:43:47;;;;;;;15.60;9.30;;;;;;;;;;5019526;28;92560;-63
2023/12/04 11:46:25;;;;;;;16.20;9.27;;;;;;;;;;5019531;27;93006;-64
2023/12/04 11:48:55;;;;;;;13.77;8.65;;;;;;;;;;5021423;28;95824;-65
2023/12/04 11:51:46;;;;;;;14.20;8.48;;;;;;;;;;5021958;28;92441;-64
2023/12/04 11:54:13;;;;;;;;;;;;;;;;;;5019612;28;93141;-64
2023/12/04 11:56:40;;;;;;;16.48;8.27;;;;;;;;;;5019763;28;124939;-64
2023/12/04 11:59:07;;;;;;;15.98;9.50;;;;;;;;;;5022896;27;93048;-64
2023/12/04 12:01:34;;;;;;;12.38;8.60;;;;;;;;;;5020196;27;93479;-62
2023/12/04 12:04:02;;;;;;;14.20;8.63;;;;;;;;;;5020084;27;92757;-63
2023/12/04 12:06:28;;;;;;;13.48;8.40;;;;;;;;;;5023372;28;93068;-63
2023/12/04 12:08:55;;;;;;;15.20;9.05;;;;;;;;;;5025392;28;93432;-67
2023/12/04 12:11:23;;;;;;;16.13;9.32;;;;;;;;;;5021593;28;92648;-64
2023/12/04 12:13:49;;;;;;;18.85;9.57;;;;;;;;;;5014969;28;94894;-64
2023/12/04 12:16:17;;;;;;;19.33;8.63;;;;;;;;;;5022616;28;94546;-64
2023/12/04 12:18:46;;;;;;;16.00;9.17;;;;;;;;;;5024367;27;92546;-63
2023/12/04 12:21:12;;;;;;;15.93;8.70;;;;;;;;;;5021332;28;94212;-63
2023/12/04 12:23:39;;;;;;;14.60;8.32;;;;;;;;;;5019968;28;93512;-64
2023/12/04 12:26:06;;;;;;;16.88;9.50;;;;;;;;;;5024561;27;93212;-64
2023/12/04 12:28:34;;;;;;;18.00;9.52;;;;;;;;;;5019695;28;94360;-64
2023/12/04 12:31:03;;;;;;;13.65;8.82;;;;;;;;;;5020666;27;91780;-63
2023/12/04 12:33:30;;;;;;;15.80;9.40;;;;;;;;;;5021143;28;93468;-64
2023/12/04 12:35:57;;;;;;;16.48;8.82;;;;;;;;;;5022879;28;93449;-64
2023/12/04 12:38:30;;;;;;;15.02;9.10;;;;;;;;;;5018600;27;94963;-64
2023/12/04 12:40:56;;;;;;;18.42;10.40;;;;;;;;;;5017950;28;95405;-64
2023/12/04 12:43:23;;;;;;;23.05;9.85;;;;;;;;;;5006097;28;92563;-63
2023/12/04 12:45:50;;;;;;;14.18;9.20;;;;;;;;;;5011816;28;93178;-64
2023/12/04 12:48:17;;;;;;;16.02;9.32;;;;;;;;;;5014592;28;93527;-63
2023/12/04 12:50:44;;;;;;;16.15;9.68;;;;;;;;;;5019492;28;92753;-64
2023/12/04 12:53:11;;;;;;;15.23;9.60;;;;;;;;;;5023760;27;93072;-63
2023/12/04 12:55:41;;;;;;;13.68;8.82;;;;;;;;;;5022702;28;92713;-63
2023/12/04 12:58:10;;;;;;;17.30;9.57;;;;;;;;;;5012676;28;92394;-63
2023/12/04 13:00:38;;;;;;;14.85;8.82;;;;;;;;;;5016368;28;93050;-64
2023/12/04 13:03:06;;;;;;;17.98;9.15;;;;;;;;;;5014105;28;96818;-64
2023/12/04 13:05:33;;;;;;;17.25;9.55;;;;;;;;;;5024648;28;95438;-63
2023/12/04 13:07:59;;;;;;;13.57;8.25;;;;;;;;;;5019746;28;93470;-64
2023/12/04 13:10:25;;;;;;;14.07;8.52;;;;;;;;;;5023114;28;92668;-64
2023/12/04 13:12:53;;;;;;;13.18;8.63;;;;;;;;;;5022888;27;93145;-64
2023/12/04 13:15:20;;;;;;;15.73;9.40;;;;;;;;;;5015894;28;93209;-64
2023/12/04 13:17:46;;;;;;;16.23;9.02;;;;;;;;;;5020975;28;92540;-64
2023/12/04 13:20:14;;;;;;;15.60;8.77;;;;;;;;;;5024188;28;93643;-60
2023/12/04 13:22:40;;;;;;;16.58;9.40;;;;;;;;;;5027489;27;92556;-60
2023/12/04 13:25:09;;;;;;;19.20;9.10;;;;;;;;;;5021530;28;92649;-60
2023/12/04 13:27:38;;;;;;;15.30;9.60;;;;;;;;;;5024632;27;95973;-60
2023/12/04 13:30:08;;;;;;;16.48;8.98;;;;;;;;;;5024653;28;92543;-60
2023/12/04 13:32:35;;;;;;;14.05;9.40;;;;;;;;;;5024062;28;94249;-61
2023/12/04 13:35:04;;;;;;;17.83;9.30;;;;;;;;;;5023835;28;94589;-60
2023/12/04 13:37:31;;;;;;;16.65;8.88;;;;;;;;;;5024369;27;92442;-60
2023/12/04 13:39:58;;;;;;;14.57;9.45;;;;;;;;;;5026405;28;93230;-61
2023/12/04 13:45:09;;;;;;;11.60;8.10;;;;;;;;;;5024393;28;91611;-60
2023/12/04 13:47:36;;;;;;;15.70;8.70;;;;;;;;;;5022838;27;92637;-60
2023/12/04 13:50:02;;;;;;;15.07;8.90;;;;;;;;;;5022439;28;92485;-60
2023/12/04 13:52:33;;;;;;;20.50;11.82;;;;;;;;;;5022332;28;94869;-60
2023/12/04 13:55:00;;;;;;;;;;;;;;;;;;5015860;28;93365;-60
2023/12/04 13:57:33;;;;;;;29.50;13.18;;;;;;;;;;5022705;28;119784;-62
2023/12/04 14:00:00;;;;;;;21.70;12.52;;;;;;;;;;5011701;28;95200;-60
2023/12/04 14:02:26;;;;;;;20.50;11.00;;;;;;;;;;5018032;27;93448;-60
2023/12/04 14:04:53;;;;;;;17.10;10.07;;;;;;;;;;5019669;28;92543;-61
2023/12/04 14:07:20;;;;;;;18.58;10.50;;;;;;;;;;5028908;27;94147;-61
2023/12/04 14:09:47;;;;;;;16.65;10.25;;;;;;;;;;5025117;27;91766;-60
2023/12/04 14:12:16;;;;;;;15.90;9.63;;;;;;;;;;5022621;28;93449;-61
2023/12/04 14:14:42;;;;;;;21.70;12.65;;;;;;;;;;5015171;27;94402;-60
2023/12/04 14:17:10;;;;;;;19.23;11.02;;;;;;;;;;5015943;28;94867;-61
2023/12/04 14:19:38;;;;;;;14.73;8.90;;;;;;;;;;5017480;28;95998;-61
2023/12/04 14:22:05;;;;;;;23.00;9.45;;;;;;;;;;5023329;28;94986;-60
2023/12/04 14:24:32;;;;;;;13.18;8.77;;;;;;;;;;5020560;28;92727;-60
2023/12/04 14:26:58;;;;;;;19.27;9.65;;;;;;;;;;5023896;28;92945;-60
2023/12/04 14:29:24;;;;;;;15.15;9.63;;;;;;;;;;5019735;28;95242;-60